sensor_id;sensor_type;location;lat;lon;timestamp;pressure;altitude;pressure_sealevel;temperature;humidity
73633;BME280;61927;50.080;14.418;2023-08-17T00:01:40;99654.31;;;21.38;85.30
73633;BME280;61927;50.080;14.418;2023-08-17T00:04:05;99655.41;;;21.27;85.64
73633;BME280;61927;50.080;14.418;2023-08-17T00:06:31;99651.47;;;21.21;86.55
73633;BME280;61927;50.080;14.418;2023-08-17T00:08:57;99660.56;;;21.20;86.55
73633;BME280;61927;50.080;14.418;2023-08-17T00:11:22;99663.59;;;21.17;86.55
73633;BME280;61927;50.080;14.418;2023-08-17T00:13:48;99656.66;;;21.15;86.62
73633;BME280;61927;50.080;14.418;2023-08-17T00:16:14;99649.03;;;21.10;85.60
73633;BME280;61927;50.080;14.418;2023-08-17T00:18:39;99653.50;;;21.02;86.46
73633;BME280;61927;50.080;14.418;2023-08-17T00:21:05;99655.13;;;20.94;86.05
73633;BME280;61927;50.080;14.418;2023-08-17T00:23:31;99654.59;;;20.91;86.54
73633;BME280;61927;50.080;14.418;2023-08-17T00:25:56;99652.06;;;20.89;86.31
73633;BME280;61927;50.080;14.418;2023-08-17T00:28:22;99649.97;;;20.83;86.25
73633;BME280;61927;50.080;14.418;2023-08-17T00:30:47;99652.16;;;20.80;85.69
73633;BME280;61927;50.080;14.418;2023-08-17T00:33:13;99648.22;;;20.74;85.99
73633;BME280;61927;50.080;14.418;2023-08-17T00:35:38;99641.13;;;20.73;85.44
73633;BME280;61927;50.080;14.418;2023-08-17T00:38:04;99646.28;;;20.67;85.76
73633;BME280;61927;50.080;14.418;2023-08-17T00:40:29;99647.06;;;20.59;86.25
73633;BME280;61927;50.080;14.418;2023-08-17T00:42:55;99644.84;;;20.54;86.70
73633;BME280;61927;50.080;14.418;2023-08-17T00:45:22;99631.66;;;20.51;87.34
73633;BME280;61927;50.080;14.418;2023-08-17T00:47:48;99629.81;;;20.52;87.14
73633;BME280;61927;50.080;14.418;2023-08-17T00:50:14;99643.13;;;20.53;86.54
73633;BME280;61927;50.080;14.418;2023-08-17T00:52:40;99648.84;;;20.50;86.79
73633;BME280;61927;50.080;14.418;2023-08-17T00:55:07;99648.28;;;20.47;87.15
73633;BME280;61927;50.080;14.418;2023-08-17T00:57:34;99650.00;;;20.48;87.66
73633;BME280;61927;50.080;14.418;2023-08-17T01:00:00;99648.13;;;20.48;86.75
73633;BME280;61927;50.080;14.418;2023-08-17T01:02:26;99646.91;;;20.43;86.82
73633;BME280;61927;50.080;14.418;2023-08-17T01:04:53;99651.88;;;20.38;87.28
73633;BME280;61927;50.080;14.418;2023-08-17T01:07:18;99637.84;;;20.34;87.78
73633;BME280;61927;50.080;14.418;2023-08-17T01:09:44;99638.69;;;20.35;87.51
73633;BME280;61927;50.080;14.418;2023-08-17T01:12:21;99635.63;;;20.29;87.59
73633;BME280;61927;50.080;14.418;2023-08-17T01:17:42;99643.75;;;20.20;87.85
73633;BME280;61927;50.080;14.418;2023-08-17T01:20:09;99648.84;;;20.23;88.74
73633;BME280;61927;50.080;14.418;2023-08-17T01:22:42;99647.00;;;20.23;88.43
73633;BME280;61927;50.080;14.418;2023-08-17T01:25:10;99644.47;;;20.22;88.68
73633;BME280;61927;50.080;14.418;2023-08-17T01:27:44;99642.84;;;20.29;88.26
73633;BME280;61927;50.080;14.418;2023-08-17T01:30:15;99635.63;;;20.29;88.31
73633;BME280;61927;50.080;14.418;2023-08-17T01:32:51;99635.31;;;20.32;88.06
73633;BME280;61927;50.080;14.418;2023-08-17T01:35:35;99644.25;;;20.33;88.20
73633;BME280;61927;50.080;14.418;2023-08-17T01:38:06;99627.13;;;20.24;87.55
73633;BME280;61927;50.080;14.418;2023-08-17T01:40:33;99641.66;;;20.14;88.57
73633;BME280;61927;50.080;14.418;2023-08-17T01:43:00;99631.59;;;20.16;89.14
73633;BME280;61927;50.080;14.418;2023-08-17T01:45:26;99624.06;;;20.19;88.78
73633;BME280;61927;50.080;14.418;2023-08-17T01:47:52;99616.97;;;20.18;88.60
73633;BME280;61927;50.080;14.418;2023-08-17T01:50:17;99613.56;;;20.16;88.53
73633;BME280;61927;50.080;14.418;2023-08-17T01:52:43;99614.03;;;20.12;88.36
73633;BME280;61927;50.080;14.418;2023-08-17T01:55:09;99612.34;;;20.11;87.99
73633;BME280;61927;50.080;14.418;2023-08-17T01:57:35;99602.25;;;20.13;88.82
73633;BME280;61927;50.080;14.418;2023-08-17T02:00:04;99604.81;;;20.14;89.08
73633;BME280;61927;50.080;14.418;2023-08-17T02:02:31;99596.56;;;20.16;89.34
73633;BME280;61927;50.080;14.418;2023-08-17T02:04:56;99589.19;;;20.18;89.38
73633;BME280;61927;50.080;14.418;2023-08-17T02:07:22;99590.72;;;20.20;88.68
73633;BME280;61927;50.080;14.418;2023-08-17T02:09:48;99584.19;;;20.23;88.68
73633;BME280;61927;50.080;14.418;2023-08-17T02:12:13;99581.63;;;20.21;88.49
73633;BME280;61927;50.080;14.418;2023-08-17T02:14:39;99587.19;;;20.20;88.39
73633;BME280;61927;50.080;14.418;2023-08-17T02:17:04;99589.88;;;20.20;88.38
73633;BME280;61927;50.080;14.418;2023-08-17T02:19:31;99593.03;;;20.15;87.61
73633;BME280;61927;50.080;14.418;2023-08-17T02:21:58;99599.56;;;20.13;87.26
73633;BME280;61927;50.080;14.418;2023-08-17T02:24:24;99611.94;;;20.06;88.08
73633;BME280;61927;50.080;14.418;2023-08-17T02:26:50;99610.56;;;20.02;87.93
73633;BME280;61927;50.080;14.418;2023-08-17T02:29:16;99604.31;;;20.01;87.44
73633;BME280;61927;50.080;14.418;2023-08-17T02:31:42;99611.00;;;19.97;87.42
73633;BME280;61927;50.080;14.418;2023-08-17T02:34:07;99613.16;;;19.93;86.80
73633;BME280;61927;50.080;14.418;2023-08-17T02:36:33;99612.44;;;19.91;86.39
73633;BME280;61927;50.080;14.418;2023-08-17T02:38:59;99612.06;;;19.86;86.48
73633;BME280;61927;50.080;14.418;2023-08-17T02:41:24;99613.34;;;19.82;87.35
73633;BME280;61927;50.080;14.418;2023-08-17T02:43:50;99614.81;;;19.77;87.45
73633;BME280;61927;50.080;14.418;2023-08-17T02:46:15;99621.47;;;19.73;87.01
73633;BME280;61927;50.080;14.418;2023-08-17T02:48:41;99617.63;;;19.75;86.99
73633;BME280;61927;50.080;14.418;2023-08-17T02:51:06;99617.94;;;19.72;86.44
73633;BME280;61927;50.080;14.418;2023-08-17T02:53:32;99614.56;;;19.70;86.23
73633;BME280;61927;50.080;14.418;2023-08-17T02:55:57;99613.84;;;19.68;87.10
73633;BME280;61927;50.080;14.418;2023-08-17T02:58:23;99620.22;;;19.67;86.97
73633;BME280;61927;50.080;14.418;2023-08-17T03:00:51;99616.53;;;19.68;86.44
73633;BME280;61927;50.080;14.418;2023-08-17T03:03:17;99613.00;;;19.67;86.84
73633;BME280;61927;50.080;14.418;2023-08-17T03:05:43;99628.00;;;19.70;86.70
73633;BME280;61927;50.080;14.418;2023-08-17T03:08:08;99625.47;;;19.68;86.35
73633;BME280;61927;50.080;14.418;2023-08-17T03:10:34;99625.06;;;19.63;86.75
73633;BME280;61927;50.080;14.418;2023-08-17T03:13:00;99616.28;;;19.61;86.37
73633;BME280;61927;50.080;14.418;2023-08-17T03:15:25;99615.88;;;19.56;86.77
73633;BME280;61927;50.080;14.418;2023-08-17T03:17:51;99626.94;;;19.53;86.68
73633;BME280;61927;50.080;14.418;2023-08-17T03:20:16;99626.50;;;19.48;86.45
73633;BME280;61927;50.080;14.418;2023-08-17T03:22:42;99632.31;;;19.44;87.31
73633;BME280;61927;50.080;14.418;2023-08-17T03:25:08;99629.63;;;19.44;87.00
73633;BME280;61927;50.080;14.418;2023-08-17T03:27:34;99630.63;;;19.43;87.01
73633;BME280;61927;50.080;14.418;2023-08-17T03:29:59;99626.94;;;19.44;86.85
73633;BME280;61927;50.080;14.418;2023-08-17T03:32:25;99625.25;;;19.43;87.35
73633;BME280;61927;50.080;14.418;2023-08-17T03:34:50;99624.97;;;19.46;87.32
73633;BME280;61927;50.080;14.418;2023-08-17T03:37:16;99632.88;;;19.47;87.34
73633;BME280;61927;50.080;14.418;2023-08-17T03:39:41;99622.97;;;19.48;87.81
73633;BME280;61927;50.080;14.418;2023-08-17T03:42:07;99629.19;;;19.48;87.91
73633;BME280;61927;50.080;14.418;2023-08-17T03:44:33;99627.09;;;19.52;87.98
73633;BME280;61927;50.080;14.418;2023-08-17T03:46:58;99626.22;;;19.51;88.13
73633;BME280;61927;50.080;14.418;2023-08-17T03:49:24;99634.44;;;19.50;88.02
73633;BME280;61927;50.080;14.418;2023-08-17T03:51:49;99638.13;;;19.49;88.21
73633;BME280;61927;50.080;14.418;2023-08-17T03:54:16;99637.97;;;19.50;88.80
73633;BME280;61927;50.080;14.418;2023-08-17T03:56:42;99637.97;;;19.50;88.53
73633;BME280;61927;50.080;14.418;2023-08-17T03:59:08;99637.13;;;19.50;88.24
73633;BME280;61927;50.080;14.418;2023-08-17T04:01:33;99644.78;;;19.54;88.41
73633;BME280;61927;50.080;14.418;2023-08-17T04:03:59;99644.66;;;19.56;88.49
73633;BME280;61927;50.080;14.418;2023-08-17T04:06:24;99651.88;;;19.55;88.65
73633;BME280;61927;50.080;14.418;2023-08-17T04:08:50;99650.03;;;19.56;88.58
73633;BME280;61927;50.080;14.418;2023-08-17T04:11:15;99646.63;;;19.54;88.65
73633;BME280;61927;50.080;14.418;2023-08-17T04:13:41;99653.00;;;19.53;88.18
73633;BME280;61927;50.080;14.418;2023-08-17T04:16:07;99651.31;;;19.52;88.12
73633;BME280;61927;50.080;14.418;2023-08-17T04:18:32;99655.97;;;19.50;88.64
73633;BME280;61927;50.080;14.418;2023-08-17T04:20:58;99663.03;;;19.51;88.86
73633;BME280;61927;50.080;14.418;2023-08-17T04:23:23;99653.41;;;19.48;88.57
73633;BME280;61927;50.080;14.418;2023-08-17T04:25:49;99661.66;;;19.47;88.46
73633;BME280;61927;50.080;14.418;2023-08-17T04:28:14;99666.47;;;19.43;88.84
73633;BME280;61927;50.080;14.418;2023-08-17T04:30:40;99667.47;;;19.42;88.70
73633;BME280;61927;50.080;14.418;2023-08-17T04:33:06;99669.00;;;19.45;88.41
73633;BME280;61927;50.080;14.418;2023-08-17T04:35:33;99681.06;;;19.41;88.26
73633;BME280;61927;50.080;14.418;2023-08-17T04:37:59;99674.28;;;19.36;88.67
73633;BME280;61927;50.080;14.418;2023-08-17T04:40:24;99670.59;;;19.38;88.82
73633;BME280;61927;50.080;14.418;2023-08-17T04:42:50;99674.41;;;19.35;88.97
73633;BME280;61927;50.080;14.418;2023-08-17T04:45:16;99678.94;;;19.34;88.39
73633;BME280;61927;50.080;14.418;2023-08-17T04:47:41;99679.25;;;19.31;88.72
73633;BME280;61927;50.080;14.418;2023-08-17T04:50:07;99687.75;;;19.27;88.48
73633;BME280;61927;50.080;14.418;2023-08-17T04:52:33;99689.31;;;19.29;88.60
73633;BME280;61927;50.080;14.418;2023-08-17T04:54:58;99687.88;;;19.25;87.92
73633;BME280;61927;50.080;14.418;2023-08-17T04:57:24;99688.19;;;19.22;88.20
73633;BME280;61927;50.080;14.418;2023-08-17T04:59:50;99695.69;;;19.19;88.23
73633;BME280;61927;50.080;14.418;2023-08-17T05:02:16;99696.97;;;19.15;89.09
73633;BME280;61927;50.080;14.418;2023-08-17T05:04:41;99698.81;;;19.14;89.09
73633;BME280;61927;50.080;14.418;2023-08-17T05:07:07;99699.38;;;19.18;89.45
73633;BME280;61927;50.080;14.418;2023-08-17T05:09:33;99703.91;;;19.17;88.84
73633;BME280;61927;50.080;14.418;2023-08-17T05:11:59;99711.84;;;19.19;89.17
73633;BME280;61927;50.080;14.418;2023-08-17T05:14:24;99708.00;;;19.21;89.11
73633;BME280;61927;50.080;14.418;2023-08-17T05:16:50;99708.00;;;19.21;89.36
73633;BME280;61927;50.080;14.418;2023-08-17T05:19:15;99717.78;;;19.22;89.36
73633;BME280;61927;50.080;14.418;2023-08-17T05:21:41;99722.88;;;19.25;89.29
73633;BME280;61927;50.080;14.418;2023-08-17T05:24:07;99722.59;;;19.28;89.51
73633;BME280;61927;50.080;14.418;2023-08-17T05:26:32;99719.59;;;19.31;89.58
73633;BME280;61927;50.080;14.418;2023-08-17T05:28:58;99718.59;;;19.32;89.31
73633;BME280;61927;50.080;14.418;2023-08-17T05:31:23;99710.94;;;19.38;89.33
73633;BME280;61927;50.080;14.418;2023-08-17T05:33:49;99718.75;;;19.41;88.77
73633;BME280;61927;50.080;14.418;2023-08-17T05:36:14;99715.91;;;19.42;88.55
73633;BME280;61927;50.080;14.418;2023-08-17T05:38:40;99712.91;;;19.45;88.74
73633;BME280;61927;50.080;14.418;2023-08-17T05:41:06;99725.09;;;19.49;88.02
73633;BME280;61927;50.080;14.418;2023-08-17T05:43:31;99726.53;;;19.44;88.82
73633;BME280;61927;50.080;14.418;2023-08-17T05:45:58;99719.16;;;19.46;88.72
73633;BME280;61927;50.080;14.418;2023-08-17T05:48:26;99721.41;;;19.50;88.39
73633;BME280;61927;50.080;14.418;2023-08-17T05:50:52;99721.00;;;19.55;87.76
73633;BME280;61927;50.080;14.418;2023-08-17T05:53:18;99720.88;;;19.56;87.33
73633;BME280;61927;50.080;14.418;2023-08-17T05:55:43;99717.63;;;19.53;87.62
73633;BME280;61927;50.080;14.418;2023-08-17T05:58:09;99725.94;;;19.59;87.14
73633;BME280;61927;50.080;14.418;2023-08-17T06:00:34;99727.66;;;19.60;87.29
73633;BME280;61927;50.080;14.418;2023-08-17T06:03:00;99724.81;;;19.62;86.97
73633;BME280;61927;50.080;14.418;2023-08-17T06:05:27;99730.59;;;19.67;86.90
73633;BME280;61927;50.080;14.418;2023-08-17T06:07:55;99729.19;;;19.73;86.93
73633;BME280;61927;50.080;14.418;2023-08-17T06:10:20;99728.31;;;19.82;86.58
73633;BME280;61927;50.080;14.418;2023-08-17T06:12:54;99732.09;;;19.89;85.62
73633;BME280;61927;50.080;14.418;2023-08-17T06:15:20;99726.56;;;19.90;86.20
73633;BME280;61927;50.080;14.418;2023-08-17T06:17:45;99726.41;;;19.92;86.36
73633;BME280;61927;50.080;14.418;2023-08-17T06:20:12;99724.28;;;19.95;86.33
73633;BME280;61927;50.080;14.418;2023-08-17T06:22:38;99723.84;;;20.00;86.26
73633;BME280;61927;50.080;14.418;2023-08-17T06:25:04;99722.00;;;20.00;86.71
73633;BME280;61927;50.080;14.418;2023-08-17T06:27:31;99721.28;;;19.98;86.76
73633;BME280;61927;50.080;14.418;2023-08-17T06:29:57;99714.75;;;20.01;86.66
73633;BME280;61927;50.080;14.418;2023-08-17T06:32:23;99707.94;;;20.07;86.12
73633;BME280;61927;50.080;14.418;2023-08-17T06:34:48;99711.03;;;20.12;86.45
73633;BME280;61927;50.080;14.418;2023-08-17T06:37:14;99705.03;;;20.18;86.15
73633;BME280;61927;50.080;14.418;2023-08-17T06:39:40;99700.44;;;20.28;86.24
73633;BME280;61927;50.080;14.418;2023-08-17T06:42:05;99706.22;;;20.33;85.69
73633;BME280;61927;50.080;14.418;2023-08-17T06:44:31;99706.78;;;20.37;85.60
73633;BME280;61927;50.080;14.418;2023-08-17T06:46:57;99703.34;;;20.44;85.27
73633;BME280;61927;50.080;14.418;2023-08-17T06:49:24;99690.97;;;20.51;85.38
73633;BME280;61927;50.080;14.418;2023-08-17T06:51:50;99683.13;;;20.58;85.13
73633;BME280;61927;50.080;14.418;2023-08-17T06:54:15;99681.81;;;20.62;84.26
73633;BME280;61927;50.080;14.418;2023-08-17T06:56:41;99680.34;;;20.68;83.88
73633;BME280;61927;50.080;14.418;2023-08-17T06:59:07;99683.59;;;20.71;83.92
73633;BME280;61927;50.080;14.418;2023-08-17T07:01:32;99690.06;;;20.78;83.78
73633;BME280;61927;50.080;14.418;2023-08-17T07:03:58;99691.28;;;20.84;83.25
73633;BME280;61927;50.080;14.418;2023-08-17T07:06:24;99695.75;;;20.93;81.93
73633;BME280;61927;50.080;14.418;2023-08-17T07:08:50;99694.66;;;21.04;81.07
73633;BME280;61927;50.080;14.418;2023-08-17T07:11:15;99692.34;;;21.09;80.38
73633;BME280;61927;50.080;14.418;2023-08-17T07:13:41;99699.13;;;21.13;78.96
73633;BME280;61927;50.080;14.418;2023-08-17T07:16:07;99696.66;;;21.19;79.65
73633;BME280;61927;50.080;14.418;2023-08-17T07:18:32;99702.63;;;21.23;80.13
73633;BME280;61927;50.080;14.418;2023-08-17T07:20:58;99695.06;;;21.26;79.92
73633;BME280;61927;50.080;14.418;2023-08-17T07:23:23;99698.59;;;21.27;79.36
73633;BME280;61927;50.080;14.418;2023-08-17T07:25:49;99702.69;;;21.31;79.11
73633;BME280;61927;50.080;14.418;2023-08-17T07:28:14;99707.22;;;21.31;79.19
73633;BME280;61927;50.080;14.418;2023-08-17T07:30:41;99706.91;;;21.34;79.25
73633;BME280;61927;50.080;14.418;2023-08-17T07:33:06;99701.22;;;21.37;78.59
73633;BME280;61927;50.080;14.418;2023-08-17T07:35:32;99704.13;;;21.43;77.69
73633;BME280;61927;50.080;14.418;2023-08-17T07:37:58;99705.50;;;21.47;77.66
73633;BME280;61927;50.080;14.418;2023-08-17T07:40:23;99708.94;;;21.57;76.34
73633;BME280;61927;50.080;14.418;2023-08-17T07:42:49;99713.56;;;21.65;75.04
73633;BME280;61927;50.080;14.418;2023-08-17T07:45:15;99719.00;;;21.73;75.04
73633;BME280;61927;50.080;14.418;2023-08-17T07:47:40;99710.94;;;21.81;74.55
73633;BME280;61927;50.080;14.418;2023-08-17T07:50:07;99713.50;;;21.83;74.00
73633;BME280;61927;50.080;14.418;2023-08-17T07:52:33;99712.84;;;21.89;73.26
73633;BME280;61927;50.080;14.418;2023-08-17T07:54:58;99704.25;;;21.93;73.27
73633;BME280;61927;50.080;14.418;2023-08-17T07:57:24;99714.25;;;22.01;72.89
73633;BME280;61927;50.080;14.418;2023-08-17T07:59:50;99712.13;;;22.05;72.18
73633;BME280;61927;50.080;14.418;2023-08-17T08:02:17;99704.88;;;22.13;71.29
73633;BME280;61927;50.080;14.418;2023-08-17T08:04:43;99711.19;;;22.22;71.22
73633;BME280;61927;50.080;14.418;2023-08-17T08:07:10;99707.81;;;22.28;70.34
73633;BME280;61927;50.080;14.418;2023-08-17T08:09:35;99712.56;;;22.34;70.17
73633;BME280;61927;50.080;14.418;2023-08-17T08:12:02;99708.38;;;22.40;69.28
73633;BME280;61927;50.080;14.418;2023-08-17T08:14:27;99704.31;;;22.44;69.27
73633;BME280;61927;50.080;14.418;2023-08-17T08:16:53;99698.41;;;22.48;68.74
73633;BME280;61927;50.080;14.418;2023-08-17T08:19:19;99691.66;;;22.52;69.04
73633;BME280;61927;50.080;14.418;2023-08-17T08:21:44;99694.41;;;22.61;69.29
73633;BME280;61927;50.080;14.418;2023-08-17T08:24:10;99696.78;;;22.64;69.72
73633;BME280;61927;50.080;14.418;2023-08-17T08:26:35;99688.31;;;22.67;69.31
73633;BME280;61927;50.080;14.418;2023-08-17T08:29:01;99688.00;;;22.70;68.76
73633;BME280;61927;50.080;14.418;2023-08-17T08:31:26;99693.06;;;22.73;69.39
73633;BME280;61927;50.080;14.418;2023-08-17T08:33:52;99686.69;;;22.82;69.25
73633;BME280;61927;50.080;14.418;2023-08-17T08:36:18;99690.94;;;22.93;68.46
73633;BME280;61927;50.080;14.418;2023-08-17T08:38:44;99682.47;;;23.04;68.57
73633;BME280;61927;50.080;14.418;2023-08-17T08:41:11;99684.50;;;23.10;67.81
73633;BME280;61927;50.080;14.418;2023-08-17T08:43:38;99687.03;;;23.11;67.03
73633;BME280;61927;50.080;14.418;2023-08-17T08:46:04;99682.97;;;23.15;67.58
73633;BME280;61927;50.080;14.418;2023-08-17T08:48:31;99686.53;;;23.24;67.09
73633;BME280;61927;50.080;14.418;2023-08-17T08:51:01;99686.03;;;23.29;67.37
73633;BME280;61927;50.080;14.418;2023-08-17T08:53:39;99681.78;;;23.34;67.07
73633;BME280;61927;50.080;14.418;2023-08-17T08:56:11;99680.94;;;23.42;66.29
73633;BME280;61927;50.080;14.418;2023-08-17T08:58:41;99677.00;;;23.52;65.58
73633;BME280;61927;50.080;14.418;2023-08-17T09:01:10;99666.19;;;23.52;65.90
73633;BME280;61927;50.080;14.418;2023-08-17T09:03:36;99673.81;;;23.57;65.84
73633;BME280;61927;50.080;14.418;2023-08-17T09:06:03;99665.84;;;23.64;65.72
73633;BME280;61927;50.080;14.418;2023-08-17T09:08:30;99657.31;;;23.83;64.93
73633;BME280;61927;50.080;14.418;2023-08-17T09:10:56;99666.97;;;23.86;64.84
73633;BME280;61927;50.080;14.418;2023-08-17T09:13:22;99666.78;;;23.87;64.91
73633;BME280;61927;50.080;14.418;2023-08-17T09:15:47;99666.44;;;23.90;64.77
73633;BME280;61927;50.080;14.418;2023-08-17T09:18:13;99667.28;;;23.91;64.95
73633;BME280;61927;50.080;14.418;2023-08-17T09:20:46;99659.31;;;23.97;64.35
73633;BME280;61927;50.080;14.418;2023-08-17T09:23:18;99656.56;;;24.05;64.48
73633;BME280;61927;50.080;14.418;2023-08-17T09:25:49;99654.16;;;24.10;64.03
73633;BME280;61927;50.080;14.418;2023-08-17T09:28:18;99656.66;;;24.20;63.56
73633;BME280;61927;50.080;14.418;2023-08-17T09:31:00;99654.94;;;24.27;63.08
73633;BME280;61927;50.080;14.418;2023-08-17T09:33:29;99645.28;;;24.25;63.46
73633;BME280;61927;50.080;14.418;2023-08-17T09:35:57;99641.41;;;24.27;63.63
73633;BME280;61927;50.080;14.418;2023-08-17T09:38:24;99647.97;;;24.33;62.53
73633;BME280;61927;50.080;14.418;2023-08-17T09:40:50;99645.25;;;24.33;62.50
73633;BME280;61927;50.080;14.418;2023-08-17T09:43:17;99642.91;;;24.30;62.96
73633;BME280;61927;50.080;14.418;2023-08-17T09:45:44;99638.84;;;24.26;63.25
73633;BME280;61927;50.080;14.418;2023-08-17T09:48:14;99636.41;;;24.39;62.60
73633;BME280;61927;50.080;14.418;2023-08-17T09:50:40;99630.41;;;24.52;61.90
73633;BME280;61927;50.080;14.418;2023-08-17T09:53:07;99635.81;;;24.52;61.71
73633;BME280;61927;50.080;14.418;2023-08-17T09:55:32;99626.00;;;24.51;61.93
73633;BME280;61927;50.080;14.418;2023-08-17T09:58:02;99628.78;;;24.65;61.33
73633;BME280;61927;50.080;14.418;2023-08-17T10:00:29;99622.81;;;24.70;60.78
73633;BME280;61927;50.080;14.418;2023-08-17T10:02:57;99622.81;;;24.70;61.47
73633;BME280;61927;50.080;14.418;2023-08-17T10:05:28;99629.56;;;24.74;61.05
73633;BME280;61927;50.080;14.418;2023-08-17T10:07:57;99627.44;;;24.84;61.02
73633;BME280;61927;50.080;14.418;2023-08-17T10:10:27;99626.72;;;24.90;60.27
73633;BME280;61927;50.080;14.418;2023-08-17T10:13:10;99620.22;;;24.99;59.93
73633;BME280;61927;50.080;14.418;2023-08-17T10:15:59;99623.00;;;25.29;59.21
73633;BME280;61927;50.080;14.418;2023-08-17T10:18:46;99624.13;;;25.34;58.84
73633;BME280;61927;50.080;14.418;2023-08-17T10:21:23;99621.59;;;25.33;59.13
73633;BME280;61927;50.080;14.418;2023-08-17T10:23:53;99624.78;;;25.36;59.29
73633;BME280;61927;50.080;14.418;2023-08-17T10:26:19;99621.03;;;25.37;59.85
73633;BME280;61927;50.080;14.418;2023-08-17T10:28:45;99614.94;;;25.35;60.00
73633;BME280;61927;50.080;14.418;2023-08-17T10:31:11;99613.72;;;25.38;59.86
73633;BME280;61927;50.080;14.418;2023-08-17T10:33:38;99613.53;;;25.39;60.00
73633;BME280;61927;50.080;14.418;2023-08-17T10:36:06;99613.00;;;25.44;60.40
73633;BME280;61927;50.080;14.418;2023-08-17T10:38:33;99606.44;;;25.53;59.93
73633;BME280;61927;50.080;14.418;2023-08-17T10:41:10;99604.66;;;25.60;59.67
73633;BME280;61927;50.080;14.418;2023-08-17T10:43:58;99607.78;;;25.72;59.41
73633;BME280;61927;50.080;14.418;2023-08-17T10:46:35;99604.03;;;25.73;60.00
73633;BME280;61927;50.080;14.418;2023-08-17T10:49:03;99607.66;;;25.95;58.33
73633;BME280;61927;50.080;14.418;2023-08-17T10:51:29;99601.16;;;26.11;58.09
73633;BME280;61927;50.080;14.418;2023-08-17T10:53:58;99596.84;;;26.16;58.78
73633;BME280;61927;50.080;14.418;2023-08-17T10:56:29;99597.69;;;26.17;57.45
73633;BME280;61927;50.080;14.418;2023-08-17T10:59:24;99587.13;;;26.28;56.97
73633;BME280;61927;50.080;14.418;2023-08-17T11:01:51;99585.44;;;26.27;56.79
73633;BME280;61927;50.080;14.418;2023-08-17T11:04:17;99586.09;;;26.29;56.34
73633;BME280;61927;50.080;14.418;2023-08-17T11:06:44;99588.94;;;26.36;55.95
73633;BME280;61927;50.080;14.418;2023-08-17T11:09:10;99581.03;;;26.41;55.68
73633;BME280;61927;50.080;14.418;2023-08-17T11:11:37;99581.34;;;26.53;55.28
73633;BME280;61927;50.080;14.418;2023-08-17T11:14:03;99578.50;;;26.61;55.07
73633;BME280;61927;50.080;14.418;2023-08-17T11:16:29;99581.69;;;26.64;56.00
73633;BME280;61927;50.080;14.418;2023-08-17T11:18:54;99583.03;;;26.75;56.44
73633;BME280;61927;50.080;14.418;2023-08-17T11:21:23;99578.03;;;26.79;56.25
73633;BME280;61927;50.080;14.418;2023-08-17T11:23:59;99578.34;;;26.90;56.51
73633;BME280;61927;50.080;14.418;2023-08-17T11:26:34;99577.31;;;26.91;56.93
73633;BME280;61927;50.080;14.418;2023-08-17T11:29:33;99577.56;;;26.96;56.14
73633;BME280;61927;50.080;14.418;2023-08-17T11:32:03;99573.28;;;27.09;56.27
73633;BME280;61927;50.080;14.418;2023-08-17T11:34:30;99569.97;;;27.13;56.13
73633;BME280;61927;50.080;14.418;2023-08-17T11:37:10;99572.75;;;27.20;56.28
73633;BME280;61927;50.080;14.418;2023-08-17T11:40:06;99565.84;;;27.24;56.33
73633;BME280;61927;50.080;14.418;2023-08-17T11:42:36;99563.13;;;27.24;56.20
73633;BME280;61927;50.080;14.418;2023-08-17T11:45:26;99559.16;;;27.26;57.10
73633;BME280;61927;50.080;14.418;2023-08-17T11:48:15;99552.16;;;27.45;53.48
73633;BME280;61927;50.080;14.418;2023-08-17T11:51:00;99562.84;;;27.81;51.63
73633;BME280;61927;50.080;14.418;2023-08-17T11:53:42;99549.47;;;27.93;51.26
73633;BME280;61927;50.080;14.418;2023-08-17T11:56:13;99553.66;;;27.89;52.10
73633;BME280;61927;50.080;14.418;2023-08-17T11:59:16;99556.72;;;27.73;52.37
73633;BME280;61927;50.080;14.418;2023-08-17T12:06:05;99565.63;;;27.94;52.30
73633;BME280;61927;50.080;14.418;2023-08-17T12:08:47;99558.91;;;27.90;52.88
73633;BME280;61927;50.080;14.418;2023-08-17T12:11:23;99557.41;;;27.88;52.41
73633;BME280;61927;50.080;14.418;2023-08-17T12:13:52;99568.53;;;27.86;52.55
73633;BME280;61927;50.080;14.418;2023-08-17T12:17:14;99551.53;;;27.84;52.14
73633;BME280;61927;50.080;14.418;2023-08-17T12:19:43;99546.06;;;27.78;52.10
73633;BME280;61927;50.080;14.418;2023-08-17T12:22:27;99544.38;;;27.77;51.73
73633;BME280;61927;50.080;14.418;2023-08-17T12:25:07;99537.00;;;27.71;51.65
73633;BME280;61927;50.080;14.418;2023-08-17T12:27:58;99531.34;;;27.72;51.22
73633;BME280;61927;50.080;14.418;2023-08-17T12:31:23;99521.06;;;27.67;51.38
73633;BME280;61927;50.080;14.418;2023-08-17T12:34:10;99517.06;;;27.70;50.71
73633;BME280;61927;50.080;14.418;2023-08-17T12:40:31;99510.28;;;28.07;49.68
73633;BME280;61927;50.080;14.418;2023-08-17T12:43:33;99504.84;;;28.20;50.14
73633;BME280;61927;50.080;14.418;2023-08-17T12:46:02;99513.09;;;28.34;49.13
73633;BME280;61927;50.080;14.418;2023-08-17T12:48:28;99501.75;;;28.37;49.44
73633;BME280;61927;50.080;14.418;2023-08-17T12:51:09;99504.28;;;28.38;50.11
73633;BME280;61927;50.080;14.418;2023-08-17T12:53:41;99510.16;;;28.35;50.19
73633;BME280;61927;50.080;14.418;2023-08-17T12:56:14;99511.19;;;28.27;49.31
73633;BME280;61927;50.080;14.418;2023-08-17T12:58:42;99496.63;;;28.07;49.97
73633;BME280;61927;50.080;14.418;2023-08-17T13:01:48;99504.94;;;27.79;48.87
73633;BME280;61927;50.080;14.418;2023-08-17T13:08:01;99512.06;;;27.39;50.11
73633;BME280;61927;50.080;14.418;2023-08-17T13:10:44;99519.09;;;27.20;50.02
73633;BME280;61927;50.080;14.418;2023-08-17T13:13:20;99523.81;;;27.05;50.52